Time;durP1;ratioP1;P1;durP2;ratioP2;P2;SDS_P1;SDS_P2;PMS_P1;PMS_P2;Temp;Humidity;BMP_temperature;BMP_pressure;BME280_temperature;BME280_humidity;BME280_pressure;Samples;Min_cycle;Max_cycle;Signal;HPM_P1;HPM_P2
2021/11/14 00:01:13;;;;;;;21.08;16.33;;;10.80;99.30;;;;;;4992177;28;20057;-86
2021/11/14 00:03:40;;;;;;;22.77;19.35;;;10.80;99.30;;;;;;4992533;28;20043;-86
2021/11/14 00:06:07;;;;;;;20.67;15.90;;;10.80;99.30;;;;;;4992421;28;20060;-86
2021/11/14 00:08:34;;;;;;;20.38;16.65;;;10.80;99.30;;;;;;4992082;28;20034;-86
2021/11/14 00:11:10;;;;;;;19.70;15.80;;;10.80;99.40;;;;;;4992983;28;20422;-86
2021/11/14 00:13:40;;;;;;;20.88;17.65;;;10.80;99.40;;;;;;4992403;28;20042;-86
2021/11/14 00:16:10;;;;;;;25.08;19.30;;;10.80;99.40;;;;;;4992053;28;20051;-86
2021/11/14 00:18:36;;;;;;;23.70;18.52;;;10.80;99.40;;;;;;4991971;28;20042;-86
2021/11/14 00:21:02;;;;;;;22.55;18.13;;;10.80;99.40;;;;;;4992521;28;20045;-86
2021/11/14 00:23:27;;;;;;;27.80;21.55;;;10.80;99.40;;;;;;4992064;28;20042;-85
2021/11/14 00:25:53;;;;;;;29.00;21.17;;;10.80;99.40;;;;;;4996444;28;20038;-85
2021/11/14 00:28:19;;;;;;;24.35;19.27;;;10.80;99.40;;;;;;4996227;28;20045;-86
2021/11/14 00:30:44;;;;;;;22.73;18.75;;;10.80;99.40;;;;;;4995076;28;20060;-86
2021/11/14 00:33:11;;;;;;;24.70;19.58;;;10.80;99.40;;;;;;4996463;28;20136;-88
2021/11/14 00:35:38;;;;;;;24.63;19.23;;;10.80;99.40;;;;;;4995776;28;20058;-85
2021/11/14 00:38:03;;;;;;;29.90;22.40;;;10.80;99.40;;;;;;4995369;28;20482;-86
2021/11/14 00:40:31;;;;;;;32.17;23.95;;;10.80;99.40;;;;;;4996142;28;20058;-85
2021/11/14 00:42:59;;;;;;;26.95;20.25;;;10.80;99.40;;;;;;4994889;28;20486;-85
2021/11/14 00:45:26;;;;;;;29.17;22.20;;;10.80;99.40;;;;;;4996388;28;20133;-85
2021/11/14 00:47:52;;;;;;;36.97;26.02;;;10.80;99.70;;;;;;4996241;28;20498;-87
2021/11/14 00:50:17;;;;;;;27.33;21.27;;;10.80;99.40;;;;;;4994200;28;20169;-86
2021/11/14 00:52:45;;;;;;;33.00;23.58;;;10.80;99.40;;;;;;4996031;28;20133;-86
2021/11/14 00:55:14;;;;;;;25.23;20.55;;;10.80;99.40;;;;;;4995083;28;20042;-86
2021/11/14 00:57:40;;;;;;;37.33;26.23;;;10.80;99.40;;;;;;4995075;28;20054;-87
2021/11/14 01:00:10;;;;;;;31.85;24.10;;;10.80;99.40;;;;;;4996040;28;20046;-86
2021/11/14 01:02:36;;;;;;;28.92;21.48;;;10.80;99.30;;;;;;4996271;28;20497;-86
2021/11/14 01:05:04;;;;;;;37.75;26.63;;;10.80;99.30;;;;;;4977682;28;20552;-86
2021/11/14 01:07:30;;;;;;;35.33;25.08;;;10.80;99.30;;;;;;4976862;28;20058;-86
2021/11/14 01:09:55;;;;;;;36.40;25.05;;;10.80;99.30;;;;;;4982685;28;20045;-86
2021/11/14 01:12:21;;;;;;;34.92;25.63;;;10.80;99.30;;;;;;4995091;28;20046;-85
2021/11/14 01:14:47;;;;;;;32.55;24.27;;;10.80;99.30;;;;;;4995343;28;20069;-86
2021/11/14 01:17:12;;;;;;;33.00;24.08;;;10.80;99.30;;;;;;4995474;28;20494;-86
2021/11/14 01:19:38;;;;;;;33.38;24.70;;;10.80;99.40;;;;;;4994786;28;20042;-86
2021/11/14 01:22:04;;;;;;;35.83;25.77;;;10.80;99.40;;;;;;4995344;28;20049;-85
2021/11/14 01:24:30;;;;;;;36.03;25.25;;;10.80;99.40;;;;;;4995821;28;20046;-86
2021/11/14 01:26:55;;;;;;;36.30;25.67;;;10.80;99.40;;;;;;4994503;28;20050;-86
2021/11/14 01:29:21;;;;;;;35.22;24.80;;;10.80;99.40;;;;;;4995026;28;20039;-86
2021/11/14 01:31:47;;;;;;;33.83;26.42;;;10.80;99.50;;;;;;4995923;28;20037;-86
2021/11/14 01:34:12;;;;;;;33.35;24.80;;;10.80;99.50;;;;;;4993824;28;20566;-85
2021/11/14 01:36:38;;;;;;;34.38;25.30;;;10.80;99.50;;;;;;4995187;28;20057;-86
2021/11/14 01:39:07;;;;;;;37.22;26.48;;;10.80;99.50;;;;;;4994259;28;20046;-86
2021/11/14 01:41:35;;;;;;;35.45;26.23;;;10.80;99.50;;;;;;4994879;28;20046;-85
2021/11/14 01:44:02;;;;;;;33.65;24.50;;;10.80;99.50;;;;;;4994281;28;20038;-85
2021/11/14 01:46:28;;;;;;;33.88;25.40;;;10.80;99.50;;;;;;4994342;28;20054;-86
2021/11/14 01:48:54;;;;;;;35.22;25.40;;;10.80;99.50;;;;;;4994288;28;20471;-86
2021/11/14 01:51:20;;;;;;;34.53;25.25;;;10.80;99.50;;;;;;4994856;28;20402;-85
2021/11/14 01:53:48;;;;;;;33.28;24.75;;;10.80;99.50;;;;;;4994190;28;20051;-86
2021/11/14 01:56:16;;;;;;;43.13;29.17;;;10.80;99.50;;;;;;4993975;28;20097;-86
2021/11/14 01:58:42;;;;;;;33.10;22.92;;;10.80;99.60;;;;;;4995024;28;20061;-86
2021/11/14 02:01:14;;;;;;;33.58;24.13;;;10.80;99.60;;;;;;4993771;28;20050;-86
2021/11/14 02:03:43;;;;;;;31.38;23.55;;;10.80;99.60;;;;;;4979955;28;20053;-85
2021/11/14 02:06:10;;;;;;;33.38;24.60;;;10.80;99.60;;;;;;4994034;28;20441;-87
2021/11/14 02:08:39;;;;;;;33.85;23.65;;;10.80;99.50;;;;;;4994073;28;20042;-86
2021/11/14 02:11:05;;;;;;;38.63;25.90;;;10.80;99.50;;;;;;4994340;28;20078;-86
2021/11/14 02:13:31;;;;;;;31.83;23.55;;;10.80;99.50;;;;;;4994526;28;20042;-86
2021/11/14 02:15:57;;;;;;;38.75;25.55;;;10.80;99.50;;;;;;4992859;28;20034;-86
2021/11/14 02:18:23;;;;;;;35.00;24.30;;;10.80;99.50;;;;;;4994865;28;20478;-85
2021/11/14 02:20:50;;;;;;;32.47;22.33;;;10.80;99.50;;;;;;4994689;28;20042;-86
2021/11/14 02:23:18;;;;;;;31.23;22.77;;;10.70;99.50;;;;;;4993520;28;20050;-86
2021/11/14 02:25:48;;;;;;;32.20;24.33;;;10.70;99.50;;;;;;4993900;28;20050;-86
2021/11/14 02:28:17;;;;;;;33.17;23.40;;;10.70;99.40;;;;;;4993488;28;20498;-85
2021/11/14 02:30:44;;;;;;;32.92;23.38;;;10.80;99.50;;;;;;4994150;28;20042;-86
2021/11/14 02:33:10;;;;;;;33.53;23.77;;;10.70;99.40;;;;;;4993594;28;20046;-86
2021/11/14 02:35:36;;;;;;;30.20;22.17;;;10.70;99.40;;;;;;4993310;28;20450;-86
2021/11/14 02:38:02;;;;;;;30.55;22.00;;;10.70;99.40;;;;;;4994068;28;20038;-86
2021/11/14 02:40:28;;;;;;;29.88;22.00;;;10.70;99.40;;;;;;4994353;28;20045;-86
2021/11/14 02:42:54;;;;;;;30.65;23.33;;;10.70;99.40;;;;;;4993079;28;20048;-86
2021/11/14 02:45:24;;;;;;;31.20;21.80;;;10.80;99.40;;;;;;4993500;28;20085;-86
2021/11/14 02:47:51;;;;;;;33.20;23.27;;;10.70;99.40;;;;;;4993051;28;20478;-86
2021/11/14 02:50:17;;;;;;;32.25;22.98;;;10.70;99.40;;;;;;4992641;28;20034;-86
2021/11/14 02:52:45;;;;;;;28.45;21.15;;;10.70;99.40;;;;;;4993803;28;20038;-86
2021/11/14 02:55:15;;;;;;;30.85;22.05;;;10.70;99.40;;;;;;4993296;28;20093;-87
2021/11/14 02:57:41;;;;;;;32.05;22.42;;;10.70;99.40;;;;;;4992649;28;20055;-85
2021/11/14 03:00:11;;;;;;;31.20;23.02;;;10.70;99.40;;;;;;4992959;28;20046;-86
2021/11/14 03:02:37;;;;;;;31.50;23.27;;;10.80;99.40;;;;;;4993071;28;20049;-85
2021/11/14 03:05:09;;;;;;;30.48;22.55;;;10.70;99.40;;;;;;4993348;28;20038;-85
2021/11/14 03:07:34;;;;;;;29.15;21.42;;;10.70;99.40;;;;;;4993642;28;20061;-86
2021/11/14 03:10:01;;;;;;;27.35;21.35;;;10.70;99.40;;;;;;4993008;28;20039;-87
2021/11/14 03:12:27;;;;;;;29.70;22.48;;;10.70;99.50;;;;;;4991767;28;20042;-87
2021/11/14 03:14:55;;;;;;;29.80;21.50;;;10.70;99.50;;;;;;4993175;28;20101;-85
2021/11/14 03:17:20;;;;;;;31.73;23.48;;;10.70;99.50;;;;;;4992338;28;20097;-85
2021/11/14 03:19:46;;;;;;;32.63;23.23;;;10.70;99.50;;;;;;4993945;28;20042;-85
2021/11/14 03:22:12;;;;;;;28.80;21.63;;;10.70;99.50;;;;;;4992798;28;20133;-85
2021/11/14 03:24:38;;;;;;;32.30;23.10;;;10.70;99.50;;;;;;4992638;28;20053;-86
2021/11/14 03:27:04;;;;;;;29.73;21.60;;;10.70;99.50;;;;;;5002827;23;20041;-86
2021/11/14 03:29:30;;;;;;;31.45;22.30;;;10.70;99.50;;;;;;4995970;28;20069;-86
2021/11/14 03:31:55;;;;;;;30.17;22.10;;;10.70;99.50;;;;;;4995009;28;20072;-87
2021/11/14 03:34:21;;;;;;;29.63;21.70;;;10.70;99.50;;;;;;4996622;28;20096;-87
2021/11/14 03:36:47;;;;;;;34.00;23.80;;;10.70;99.50;;;;;;4996579;28;20048;-86
2021/11/14 03:39:12;;;;;;;35.72;24.77;;;10.70;99.50;;;;;;4995693;28;20047;-87
2021/11/14 03:41:41;;;;;;;29.65;20.80;;;10.70;99.50;;;;;;4995946;28;20046;-86
2021/11/14 03:44:08;;;;;;;36.50;23.30;;;10.70;99.50;;;;;;4996062;28;20041;-87
2021/11/14 03:46:35;;;;;;;32.55;23.10;;;10.70;99.50;;;;;;4994614;28;20081;-86
2021/11/14 03:49:02;;;;;;;30.88;22.25;;;10.70;99.50;;;;;;4996049;28;20072;-87
2021/11/14 03:51:28;;;;;;;29.85;21.58;;;10.70;99.50;;;;;;4996226;28;20125;-86
2021/11/14 03:53:56;;;;;;;31.20;22.08;;;10.70;99.50;;;;;;4995674;28;20065;-87
2021/11/14 03:56:22;;;;;;;30.45;21.73;;;10.70;99.50;;;;;;4996217;28;20049;-87
2021/11/14 03:58:48;;;;;;;36.00;24.98;;;10.70;99.50;;;;;;4995399;28;20033;-87
2021/11/14 04:01:17;;;;;;;32.97;23.38;;;10.70;99.50;;;;;;4995039;28;20433;-86
2021/11/14 04:03:44;;;;;;;31.98;22.13;;;10.70;99.50;;;;;;4995981;28;20188;-86
2021/11/14 04:06:11;;;;;;;28.70;21.05;;;10.60;99.50;;;;;;4994719;28;20091;-87
2021/11/14 04:08:36;;;;;;;36.80;24.52;;;10.60;99.50;;;;;;4994757;28;20052;-86
2021/11/14 04:11:03;;;;;;;33.00;22.80;;;10.60;99.50;;;;;;4996017;28;20046;-86
2021/11/14 04:13:30;;;;;;;30.83;22.00;;;10.60;99.50;;;;;;4995678;28;20045;-86
2021/11/14 04:15:59;;;;;;;33.22;21.50;;;10.60;99.50;;;;;;4995043;28;20472;-86
2021/11/14 04:18:25;;;;;;;33.50;23.08;;;10.60;99.50;;;;;;4996062;28;20129;-86
2021/11/14 04:20:51;;;;;;;30.98;21.77;;;10.60;99.50;;;;;;4995402;28;20129;-86
2021/11/14 04:23:18;;;;;;;35.97;23.50;;;10.60;99.80;;;;;;4995326;28;20485;-86
2021/11/14 04:25:44;;;;;;;32.72;22.55;;;10.60;99.50;;;;;;4996289;28;20137;-86
2021/11/14 04:28:12;;;;;;;33.58;23.35;;;10.60;99.50;;;;;;5007624;28;20061;-86
2021/11/14 04:30:38;;;;;;;32.40;22.63;;;10.60;99.50;;;;;;5012261;28;20104;-86
2021/11/14 04:33:04;;;;;;;35.70;23.95;;;10.60;99.50;;;;;;5011807;28;20053;-86
2021/11/14 04:35:30;;;;;;;32.72;21.65;;;10.60;99.50;;;;;;5011093;28;20034;-86
2021/11/14 04:37:56;;;;;;;32.95;21.85;;;10.60;99.50;;;;;;5012037;28;20045;-86
2021/11/14 04:40:24;;;;;;;34.25;21.88;;;10.60;99.50;;;;;;5012184;28;20156;-86
2021/11/14 04:42:50;;;;;;;34.08;21.90;;;10.60;99.50;;;;;;5011404;28;20049;-86
2021/11/14 04:45:16;;;;;;;33.88;23.10;;;10.60;99.50;;;;;;5011851;28;20130;-86
2021/11/14 04:47:42;;;;;;;34.50;22.42;;;10.50;99.50;;;;;;5011882;28;20073;-86
2021/11/14 04:50:10;;;;;;;35.50;22.52;;;10.60;99.60;;;;;;5011481;28;20092;-87
2021/11/14 04:52:37;;;;;;;32.17;22.05;;;10.60;99.60;;;;;;5011970;28;20396;-86
2021/11/14 04:55:04;;;;;;;34.55;23.15;;;10.50;99.60;;;;;;5012200;28;20038;-86
2021/11/14 04:57:30;;;;;;;35.95;23.10;;;10.50;99.60;;;;;;5010879;28;20057;-86
2021/11/14 04:59:55;;;;;;;33.70;22.58;;;10.50;99.60;;;;;;5012155;28;20045;-85
2021/11/14 05:02:21;;;;;;;33.83;22.45;;;10.50;99.60;;;;;;5011227;28;20042;-86
2021/11/14 05:04:46;;;;;;;33.97;22.98;;;10.50;99.60;;;;;;5011315;28;20201;-86
2021/11/14 05:07:12;;;;;;;35.40;22.02;;;10.50;99.60;;;;;;5011827;28;20042;-86
2021/11/14 05:09:38;;;;;;;34.40;21.48;;;10.50;99.60;;;;;;5012747;28;20038;-87
2021/11/14 05:12:04;;;;;;;28.98;19.02;;;10.50;99.60;;;;;;5014577;28;20045;-86
2021/11/14 05:14:30;;;;;;;31.63;21.00;;;10.50;99.60;;;;;;5014860;28;20038;-86
2021/11/14 05:16:56;;;;;;;28.77;19.90;;;10.50;99.50;;;;;;5014415;28;20095;-86
2021/11/14 05:19:21;;;;;;;30.88;20.92;;;10.50;99.60;;;;;;5015409;28;20084;-86
2021/11/14 05:21:47;;;;;;;29.38;19.63;;;10.50;99.60;;;;;;5014995;28;20145;-86
2021/11/14 05:24:13;;;;;;;38.65;23.17;;;10.50;99.60;;;;;;5013974;28;20080;-86
2021/11/14 05:26:39;;;;;;;31.55;21.30;;;10.50;99.60;;;;;;5015101;28;20084;-86
2021/11/14 05:29:04;;;;;;;33.15;20.60;;;10.50;99.60;;;;;;5014381;28;20080;-86
2021/11/14 05:31:30;;;;;;;31.73;21.45;;;10.50;99.60;;;;;;5013927;28;20172;-86
2021/11/14 05:33:56;;;;;;;30.77;20.98;;;10.50;99.60;;;;;;5014115;28;20049;-86
2021/11/14 05:36:23;;;;;;;32.47;20.65;;;10.50;99.60;;;;;;5015676;28;20105;-86
2021/11/14 05:38:50;;;;;;;32.30;20.50;;;10.50;99.60;;;;;;5014339;28;20176;-86
2021/11/14 05:41:16;;;;;;;33.35;21.55;;;10.50;99.70;;;;;;5014528;28;20124;-86
2021/11/14 05:43:42;;;;;;;31.65;20.50;;;10.50;99.60;;;;;;5014834;28;20483;-86
2021/11/14 05:46:07;;;;;;;35.03;20.60;;;10.50;99.60;;;;;;5013881;28;20085;-86
2021/11/14 05:48:33;;;;;;;35.13;21.27;;;10.50;99.60;;;;;;5014606;28;20037;-86
2021/11/14 05:50:59;;;;;;;32.15;19.27;;;10.40;99.50;;;;;;5014484;28;20081;-86
2021/11/14 05:53:25;;;;;;;32.08;20.63;;;10.50;99.60;;;;;;5014014;28;20393;-86
2021/11/14 05:55:51;;;;;;;32.33;21.02;;;10.40;99.60;;;;;;5014256;28;20500;-86
2021/11/14 05:58:21;;;;;;;34.95;21.80;;;10.40;99.60;;;;;;5013780;28;20042;-87
2021/11/14 06:01:05;;;;;;;30.73;19.95;;;10.40;99.60;;;;;;5013611;28;20053;-86
2021/11/14 06:03:52;;;;;;;33.58;21.00;;;10.40;99.60;;;;;;5014365;28;20505;-86
2021/11/14 06:06:18;;;;;;;34.92;20.67;;;10.40;99.60;;;;;;5013753;28;20136;-86
2021/11/14 06:08:43;;;;;;;32.75;20.60;;;10.40;99.60;;;;;;5013926;28;20124;-86
2021/11/14 06:11:09;;;;;;;34.00;20.60;;;10.40;99.60;;;;;;5014116;28;20050;-85
2021/11/14 06:13:35;;;;;;;31.20;19.38;;;10.40;99.60;;;;;;5013642;28;20136;-86
2021/11/14 06:16:01;;;;;;;35.80;21.35;;;10.40;99.60;;;;;;5014156;28;20157;-86
2021/11/14 06:18:27;;;;;;;33.88;20.83;;;10.40;99.60;;;;;;5014310;28;20042;-86
2021/11/14 06:20:53;;;;;;;33.08;21.38;;;10.40;99.60;;;;;;5012440;28;20053;-86
2021/11/14 06:23:18;;;;;;;30.42;19.92;;;10.40;99.60;;;;;;5013259;28;20042;-86
2021/11/14 06:25:44;;;;;;;34.60;21.55;;;10.40;99.60;;;;;;5013377;28;20041;-86
2021/11/14 06:28:10;;;;;;;32.53;20.30;;;10.40;99.50;;;;;;5012544;28;20073;-86
2021/11/14 06:30:37;;;;;;;31.20;20.48;;;10.40;99.60;;;;;;5013693;28;20049;-88
2021/11/14 06:33:03;;;;;;;30.33;19.83;;;10.40;99.60;;;;;;5014050;28;20046;-87
2021/11/14 06:35:28;;;;;;;32.30;20.10;;;10.30;99.60;;;;;;5012571;28;20092;-86
2021/11/14 06:37:54;;;;;;;32.30;20.10;;;10.30;99.60;;;;;;5014096;28;20038;-86
2021/11/14 06:40:22;;;;;;;33.38;19.55;;;10.40;99.70;;;;;;5013462;28;20095;-87
2021/11/14 06:42:48;;;;;;;34.42;19.95;;;10.30;99.60;;;;;;5013573;28;20046;-86
2021/11/14 06:45:13;;;;;;;30.52;19.67;;;10.30;99.70;;;;;;5013806;28;20053;-86
2021/11/14 06:47:39;;;;;;;33.40;20.88;;;10.30;99.70;;;;;;5013362;28;20405;-84
2021/11/14 06:50:06;;;;;;;31.23;21.27;;;10.30;99.70;;;;;;5013195;28;20041;-86
2021/11/14 06:52:32;;;;;;;29.95;20.70;;;10.30;99.70;;;;;;5013737;28;20061;-85
2021/11/14 06:54:57;;;;;;;35.47;20.60;;;10.30;99.70;;;;;;5012122;28;20416;-86
2021/11/14 06:57:23;;;;;;;31.38;19.38;;;10.30;99.60;;;;;;5006713;28;20042;-86
2021/11/14 06:59:49;;;;;;;30.80;20.23;;;10.30;99.60;;;;;;5007799;28;20080;-86
2021/11/14 07:02:15;;;;;;;33.47;19.52;;;10.30;99.60;;;;;;5013107;28;20049;-85
2021/11/14 07:04:41;;;;;;;30.17;18.52;;;10.30;99.50;;;;;;5012751;28;20497;-86
2021/11/14 07:07:07;;;;;;;29.70;19.48;;;10.30;99.50;;;;;;5012632;28;20084;-86
2021/11/14 07:09:33;;;;;;;31.08;19.08;;;10.30;99.60;;;;;;5012275;28;20045;-86
2021/11/14 07:11:59;;;;;;;33.47;19.13;;;10.30;99.60;;;;;;5012791;28;20425;-85
2021/11/14 07:14:26;;;;;;;31.92;20.08;;;10.30;99.60;;;;;;4999603;28;20077;-86
2021/11/14 07:16:53;;;;;;;30.83;18.38;;;10.30;99.60;;;;;;5012696;28;20045;-86
2021/11/14 07:19:19;;;;;;;29.42;17.48;;;10.20;99.60;;;;;;5013256;28;20068;-86
2021/11/14 07:21:45;;;;;;;30.33;19.15;;;10.20;99.50;;;;;;5013313;28;20485;-86
2021/11/14 07:24:12;;;;;;;32.40;18.95;;;10.20;99.60;;;;;;5011203;28;20054;-86
2021/11/14 07:26:39;;;;;;;30.25;19.00;;;10.20;99.60;;;;;;5012708;28;20405;-86
2021/11/14 07:29:05;;;;;;;30.90;18.58;;;10.20;99.60;;;;;;5012889;28;20150;-86
2021/11/14 07:31:31;;;;;;;29.08;17.50;;;10.20;99.60;;;;;;5012334;28;20514;-86
2021/11/14 07:33:57;;;;;;;28.90;17.63;;;10.20;99.60;;;;;;5011858;28;20034;-86
2021/11/14 07:36:22;;;;;;;27.98;17.58;;;10.20;99.60;;;;;;5012802;28;20396;-86
2021/11/14 07:38:49;;;;;;;29.10;17.60;;;10.20;99.60;;;;;;5012270;28;20037;-87
2021/11/14 07:41:15;;;;;;;28.33;17.42;;;10.20;99.60;;;;;;5011265;28;20100;-87
2021/11/14 07:43:41;;;;;;;29.92;17.42;;;10.20;99.50;;;;;;5012665;28;20073;-86
2021/11/14 07:46:08;;;;;;;27.50;16.23;;;10.20;99.50;;;;;;5012015;28;20132;-87
2021/11/14 07:48:34;;;;;;;28.02;16.98;;;10.20;99.60;;;;;;5012652;28;20532;-87
2021/11/14 07:51:01;;;;;;;30.27;17.63;;;10.20;99.60;;;;;;5012533;28;20056;-86
2021/11/14 07:53:27;;;;;;;28.25;16.85;;;10.20;99.60;;;;;;5011554;28;20042;-86
2021/11/14 07:55:54;;;;;;;27.52;15.43;;;10.20;99.50;;;;;;5012036;28;20050;-86
2021/11/14 07:58:20;;;;;;;27.30;16.63;;;10.20;99.60;;;;;;5012075;28;20046;-86
2021/11/14 08:00:46;;;;;;;27.55;17.02;;;10.10;99.50;;;;;;5011107;28;20077;-86
2021/11/14 08:03:12;;;;;;;27.13;15.98;;;10.10;99.60;;;;;;5012282;28;20038;-87
2021/11/14 08:05:39;;;;;;;27.33;15.23;;;10.20;99.60;;;;;;5012230;28;20390;-86
2021/11/14 08:08:05;;;;;;;29.08;16.58;;;10.10;99.60;;;;;;5011758;28;20518;-87
2021/11/14 08:10:32;;;;;;;29.17;16.45;;;10.10;99.60;;;;;;5011752;28;20042;-86
2021/11/14 08:12:59;;;;;;;27.10;15.73;;;10.10;99.60;;;;;;5010814;28;20042;-87
2021/11/14 08:15:25;;;;;;;29.27;15.93;;;10.10;99.70;;;;;;5011049;28;20478;-85
2021/11/14 08:17:51;;;;;;;27.40;15.57;;;10.10;99.70;;;;;;5011363;28;20084;-85
2021/11/14 08:20:17;;;;;;;29.15;16.42;;;10.10;99.80;;;;;;5011282;28;20093;-85
2021/11/14 08:22:44;;;;;;;29.33;15.35;;;10.10;99.70;;;;;;5011514;28;20184;-84
2021/11/14 08:25:10;;;;;;;28.13;15.30;;;10.10;99.70;;;;;;5010911;28;20042;-86
2021/11/14 08:27:37;;;;;;;29.67;15.40;;;10.10;99.70;;;;;;5010804;28;20064;-83
2021/11/14 08:30:05;;;;;;;34.08;16.30;;;10.10;99.60;;;;;;5011045;28;20202;-83
2021/11/14 08:32:31;;;;;;;29.88;16.23;;;10.10;99.60;;;;;;5012197;28;20058;-83
2021/11/14 08:34:57;;;;;;;30.90;15.73;;;10.10;99.60;;;;;;5000132;28;20042;-83
2021/11/14 08:37:22;;;;;;;27.27;14.82;;;10.10;99.60;;;;;;5011918;28;20056;-85
2021/11/14 08:39:49;;;;;;;28.75;15.35;;;10.10;99.60;;;;;;5011721;28;20041;-85
2021/11/14 08:42:15;;;;;;;29.77;15.43;;;10.10;99.60;;;;;;5009073;28;20124;-85
2021/11/14 08:44:42;;;;;;;28.25;14.75;;;10.10;99.60;;;;;;5011349;28;20049;-88
2021/11/14 08:47:07;;;;;;;29.27;15.20;;;10.10;99.60;;;;;;5014210;28;20385;-86
2021/11/14 08:49:33;;;;;;;27.75;15.68;;;10.10;99.60;;;;;;5010952;28;20042;-90
2021/11/14 08:51:59;;;;;;;37.20;17.27;;;10.10;99.60;;;;;;5009836;28;20128;-89
2021/11/14 08:54:26;;;;;;;30.95;16.83;;;10.10;99.90;;;;;;5013754;28;20444;-87
2021/11/14 08:56:51;;;;;;;27.15;15.07;;;10.10;99.60;;;;;;5010888;28;20052;-87
2021/11/14 08:59:17;;;;;;;25.50;15.25;;;10.10;99.60;;;;;;5013434;28;20132;-87
2021/11/14 09:01:43;;;;;;;30.27;15.55;;;10.10;99.60;;;;;;5012034;28;20042;-86
2021/11/14 09:04:08;;;;;;;35.40;18.45;;;10.10;99.60;;;;;;5014618;28;20084;-86
2021/11/14 09:06:38;;;;;;;32.50;17.27;;;10.10;99.60;;;;;;5013288;28;20050;-87
2021/11/14 09:09:10;;;;;;;31.42;15.82;;;10.10;99.60;;;;;;5014914;28;20042;-87
2021/11/14 09:11:37;;;;;;;32.85;15.93;;;10.10;99.50;;;;;;5015418;28;20072;-87
2021/11/14 09:14:02;;;;;;;29.52;15.88;;;10.10;99.60;;;;;;5005094;28;20405;-87
2021/11/14 09:16:28;;;;;;;32.47;17.40;;;10.10;99.60;;;;;;5009519;28;20108;-87
2021/11/14 09:18:55;;;;;;;30.83;16.90;;;10.10;99.60;;;;;;5014984;28;20034;-86
2021/11/14 09:21:21;;;;;;;30.85;16.80;;;10.20;99.60;;;;;;5013370;28;20038;-85
2021/11/14 09:23:48;;;;;;;29.70;16.60;;;10.10;99.60;;;;;;5013995;28;20041;-85
2021/11/14 09:26:14;;;;;;;34.90;18.00;;;10.20;99.70;;;;;;5011397;28;20049;-86
2021/11/14 09:28:46;;;;;;;32.55;17.88;;;10.20;99.70;;;;;;4993060;28;20504;-86
2021/11/14 09:31:12;;;;;;;32.83;18.40;;;10.20;99.70;;;;;;4996199;28;20041;-87
2021/11/14 09:33:39;;;;;;;27.98;17.33;;;10.20;99.60;;;;;;4997282;28;20037;-86
2021/11/14 09:36:06;;;;;;;34.22;18.58;;;10.20;99.60;;;;;;4997016;28;20053;-85
2021/11/14 09:38:32;;;;;;;30.88;17.50;;;10.20;99.70;;;;;;4997294;28;20397;-85
2021/11/14 09:40:59;;;;;;;29.95;16.98;;;10.20;99.60;;;;;;4995462;28;20038;-84
2021/11/14 09:43:28;;;;;;;36.35;21.65;;;10.20;99.60;;;;;;4993941;28;20048;-84
2021/11/14 09:45:53;;;;;;;29.77;18.40;;;10.20;99.60;;;;;;4997116;28;20048;-85
2021/11/14 09:48:21;;;;;;;33.88;19.75;;;10.20;99.60;;;;;;4997683;28;20050;-86
2021/11/14 09:50:51;;;;;;;35.13;19.33;;;10.20;99.60;;;;;;4998568;28;20072;-86
2021/11/14 09:53:17;;;;;;;31.70;19.65;;;10.20;99.60;;;;;;4997148;28;20045;-85
2021/11/14 09:55:47;;;;;;;34.55;21.35;;;10.20;99.60;;;;;;4997730;28;20049;-85
2021/11/14 09:58:13;;;;;;;29.02;18.30;;;10.20;99.60;;;;;;4996595;28;20429;-85
2021/11/14 10:00:41;;;;;;;31.33;19.25;;;10.20;99.60;;;;;;4997346;28;20050;-85
2021/11/14 10:03:07;;;;;;;33.58;20.48;;;10.20;99.60;;;;;;4997562;28;20050;-85
2021/11/14 10:05:34;;;;;;;34.03;20.60;;;10.30;99.60;;;;;;4997467;28;20045;-85
2021/11/14 10:08:03;;;;;;;30.77;20.40;;;10.20;99.60;;;;;;4997342;28;20089;-86
2021/11/14 10:10:38;;;;;;;29.30;19.65;;;10.30;99.60;;;;;;4997693;28;20125;-85
2021/11/14 10:13:13;;;;;;;33.55;21.98;;;10.30;99.60;;;;;;4992261;28;20052;-85
2021/11/14 10:15:41;;;;;;;32.83;21.15;;;10.30;99.60;;;;;;4998366;28;20136;-85
2021/11/14 10:18:07;;;;;;;31.10;20.73;;;10.30;99.60;;;;;;4984184;28;20045;-85
2021/11/14 10:20:36;;;;;;;34.45;21.75;;;10.30;99.60;;;;;;4994474;28;20038;-85
2021/11/14 10:23:10;;;;;;;30.98;21.77;;;10.30;99.60;;;;;;4984855;28;20428;-84
2021/11/14 10:25:36;;;;;;;32.83;22.55;;;10.30;99.60;;;;;;4995684;28;21520;-84
2021/11/14 10:28:04;;;;;;;37.95;23.33;;;10.30;99.60;;;;;;4989585;28;20570;-84
2021/11/14 10:30:34;;;;;;;40.70;26.88;;;10.30;99.60;;;;;;4982383;28;20452;-84
2021/11/14 10:33:08;;;;;;;34.03;23.15;;;10.30;99.80;;;;;;4980764;28;20042;-84
2021/11/14 10:35:35;;;;;;;36.85;24.65;;;10.30;99.50;;;;;;5000632;28;20041;-84
2021/11/14 10:38:07;;;;;;;35.40;23.25;;;10.30;99.50;;;;;;5009498;28;20041;-84
2021/11/14 10:40:39;;;;;;;36.88;23.85;;;10.30;99.50;;;;;;4997100;28;20052;-84
2021/11/14 10:43:06;;;;;;;33.88;22.67;;;10.30;99.50;;;;;;5009511;28;20552;-84
2021/11/14 10:45:37;;;;;;;33.72;22.77;;;10.40;99.60;;;;;;5015294;28;20077;-84
2021/11/14 10:48:17;;;;;;;36.45;24.05;;;10.30;99.60;;;;;;4992074;28;20049;-85
2021/11/14 10:50:52;;;;;;;38.20;24.85;;;10.30;99.50;;;;;;4993192;28;20064;-85
2021/11/14 10:53:22;;;;;;;37.38;25.08;;;10.30;99.80;;;;;;4981632;28;20091;-85
2021/11/14 10:55:52;;;;;;;40.50;24.23;;;10.30;99.50;;;;;;4988201;28;20042;-85
2021/11/14 10:58:19;;;;;;;38.22;24.10;;;10.40;99.50;;;;;;4986513;28;20044;-85
2021/11/14 11:00:46;;;;;;;39.88;25.42;;;10.30;99.50;;;;;;4982547;28;20185;-86
2021/11/14 11:03:13;;;;;;;40.08;25.50;;;10.30;99.50;;;;;;5005817;28;20065;-86
2021/11/14 11:05:39;;;;;;;36.67;24.15;;;10.40;99.50;;;;;;4976710;28;20053;-86
2021/11/14 11:08:23;;;;;;;37.92;24.90;;;10.40;99.50;;;;;;4976252;28;20044;-85
2021/11/14 11:11:00;;;;;;;38.67;24.27;;;10.40;99.40;;;;;;4991563;28;20033;-86
2021/11/14 11:13:47;;;;;;;41.58;25.33;;;10.30;99.50;;;;;;4977180;28;20066;-86
2021/11/14 11:16:24;;;;;;;36.53;23.75;;;10.40;99.40;;;;;;4978649;28;20520;-86
2021/11/14 11:19:02;;;;;;;39.25;25.42;;;10.40;99.50;;;;;;4978484;28;20041;-85
2021/11/14 11:21:31;;;;;;;40.63;25.40;;;10.40;99.50;;;;;;4995035;28;20042;-86
2021/11/14 11:24:14;;;;;;;39.40;24.83;;;10.40;99.50;;;;;;4993709;28;20359;-85
2021/11/14 11:26:52;;;;;;;39.20;25.43;;;10.40;99.50;;;;;;4995598;28;20066;-85
2021/11/14 11:29:19;;;;;;;43.10;26.00;;;10.40;99.50;;;;;;5012704;28;20293;-85
2021/11/14 11:31:47;;;;;;;39.70;25.08;;;10.40;99.50;;;;;;5010210;28;20394;-84
2021/11/14 11:34:16;;;;;;;38.88;25.17;;;10.40;99.40;;;;;;5011449;28;20123;-83
2021/11/14 11:36:41;;;;;;;42.38;25.95;;;10.40;99.50;;;;;;4998508;28;20044;-86
2021/11/14 11:39:07;;;;;;;40.33;23.75;;;10.40;99.40;;;;;;5010597;28;20042;-85
2021/11/14 11:41:35;;;;;;;41.72;24.63;;;10.40;99.40;;;;;;5012585;28;20042;-84
2021/11/14 11:44:01;;;;;;;43.40;25.70;;;10.40;99.40;;;;;;5011970;28;20042;-85
2021/11/14 11:46:32;;;;;;;39.00;24.55;;;10.50;99.40;;;;;;5012364;28;20041;-85
2021/11/14 11:49:04;;;;;;;39.55;25.10;;;10.50;99.40;;;;;;5012482;28;20494;-84
2021/11/14 11:51:37;;;;;;;39.58;24.25;;;10.50;99.40;;;;;;5011705;28;20501;-84
2021/11/14 11:54:09;;;;;;;40.60;25.30;;;10.50;99.40;;;;;;5014502;28;20038;-85
2021/11/14 11:56:39;;;;;;;43.13;26.10;;;10.50;99.40;;;;;;5013390;28;20053;-85
2021/11/14 11:59:28;;;;;;;42.50;26.67;;;10.50;99.40;;;;;;5020369;28;20052;-85
2021/11/14 12:01:57;;;;;;;42.88;24.83;;;10.50;99.20;;;;;;5006670;28;20045;-85
2021/11/14 12:04:38;;;;;;;41.45;25.27;;;10.50;99.40;;;;;;5019145;28;20042;-85
2021/11/14 12:07:12;;;;;;;45.00;26.17;;;10.50;99.30;;;;;;5011149;28;20048;-84
2021/11/14 12:09:40;;;;;;;;;;;10.50;99.40;;;;;;4997565;28;20042;-83
2021/11/14 12:12:17;;;;;;;40.35;24.25;;;10.40;99.10;;;;;;5011761;28;20463;-84
2021/11/14 12:14:43;;;;;;;44.30;25.77;;;10.40;99.40;;;;;;5012522;28;20084;-84
2021/11/14 12:17:24;;;;;;;43.58;25.30;;;10.50;99.40;;;;;;5011706;28;20030;-84
2021/11/14 12:19:51;;;;;;;40.33;24.85;;;10.50;99.30;;;;;;5012688;28;20038;-84
2021/11/14 12:22:18;;;;;;;39.53;24.67;;;10.50;99.40;;;;;;5011010;28;20129;-85
2021/11/14 12:24:50;;;;;;;39.75;25.50;;;10.50;99.40;;;;;;5016615;28;20042;-85
2021/11/14 12:27:27;;;;;;;40.72;25.42;;;10.50;99.40;;;;;;5015264;28;20069;-85
2021/11/14 12:30:13;;;;;;;43.13;25.40;;;10.50;99.40;;;;;;5016447;28;20068;-85